createdAt,value
2022-08-23T00:02:51.998Z,50.90
2022-08-23T00:07:56.823Z,50.90
2022-08-23T00:13:00.456Z,50.70
2022-08-23T00:18:05.143Z,50.40
2022-08-23T00:23:08.398Z,50.40
2022-08-23T00:28:14.606Z,50.30
2022-08-23T00:33:19.572Z,50.30
2022-08-23T00:38:33.636Z,50.10
2022-08-23T00:43:59.989Z,49.90
2022-08-23T00:49:08.149Z,49.80
2022-08-23T00:54:12.402Z,49.60
2022-08-23T00:59:15.600Z,49.80
2022-08-23T01:04:20.634Z,50.40
2022-08-23T01:09:24.142Z,49.70
2022-08-23T01:14:31.569Z,49.70
2022-08-23T01:19:39.874Z,49.50
2022-08-23T01:25:07.147Z,49.20
2022-08-23T01:30:14.500Z,49.10
2022-08-23T01:40:29.801Z,49.10
2022-08-23T01:45:34.350Z,48.80
2022-08-23T01:55:48.443Z,48.80
2022-08-23T02:00:53.936Z,48.80
2022-08-23T02:05:57.944Z,48.80
2022-08-23T02:11:08.165Z,48.60
2022-08-23T02:16:11.386Z,48.50
2022-08-23T02:21:18.730Z,48.40
2022-08-23T02:26:31.113Z,48.40
2022-08-23T02:31:35.699Z,48.30
2022-08-23T02:36:40.324Z,49.10
2022-08-23T02:41:46.457Z,48.40
2022-08-23T02:46:49.916Z,48.30
2022-08-23T02:51:53.903Z,48.30
2022-08-23T02:56:58.643Z,48.20
2022-08-23T03:02:02.311Z,48.10
2022-08-23T03:07:11.008Z,48.10
2022-08-23T03:12:16.033Z,48.30
2022-08-23T03:17:25.683Z,48.10
2022-08-23T03:22:28.949Z,48.30
2022-08-23T03:27:33.634Z,48.20
2022-08-23T03:32:42.418Z,48.10
2022-08-23T03:37:55.337Z,48.10
2022-08-23T03:43:01.374Z,47.90
2022-08-23T03:48:06.543Z,47.90
2022-08-23T03:53:13.125Z,47.90
2022-08-23T03:58:21.848Z,48.00
2022-08-23T04:03:25.751Z,47.90
2022-08-23T04:08:37.767Z,47.90
2022-08-23T04:13:43.685Z,47.90
2022-08-23T04:18:48.488Z,47.80
2022-08-23T04:23:54.123Z,47.90
2022-08-23T04:28:59.229Z,48.00
2022-08-23T04:34:03.009Z,48.00
2022-08-23T04:39:08.719Z,48.00
2022-08-23T04:44:15.619Z,47.80
2022-08-23T04:49:21.743Z,47.50
2022-08-23T04:54:29.876Z,48.00
2022-08-23T04:59:59.909Z,47.30
2022-08-23T05:05:04.104Z,47.40
2022-08-23T05:10:12.818Z,47.30
2022-08-23T05:15:20.026Z,47.60
2022-08-23T05:20:29.331Z,47.80
2022-08-23T05:25:47.261Z,47.80
2022-08-23T05:31:02.106Z,48.00
2022-08-23T05:36:11.804Z,48.70
2022-08-23T05:41:15.834Z,49.00
2022-08-23T05:46:26.577Z,49.60
2022-08-23T05:51:52.127Z,50.10
2022-08-23T05:56:57.969Z,50.20
2022-08-23T06:02:03.035Z,49.90
2022-08-23T06:07:06.822Z,49.70
2022-08-23T06:12:10.281Z,49.30
2022-08-23T06:17:16.237Z,49.10
2022-08-23T06:22:20.105Z,49.00
2022-08-23T06:27:24.777Z,49.00
2022-08-23T06:32:29.492Z,49.00
2022-08-23T06:37:51.417Z,49.10
2022-08-23T06:43:15.998Z,49.10
2022-08-23T06:48:31.470Z,49.10
2022-08-23T06:53:35.046Z,49.20
2022-08-23T06:58:58.200Z,49.20
2022-08-23T07:04:10.305Z,50.00
2022-08-23T07:09:52.960Z,49.40
2022-08-23T07:14:57.363Z,49.30
2022-08-23T07:20:02.066Z,49.50
2022-08-23T07:25:07.671Z,49.60
2022-08-23T07:30:15.314Z,49.70
2022-08-23T07:35:21.498Z,49.70
2022-08-23T07:40:27.644Z,49.80
2022-08-23T07:45:36.128Z,50.10
2022-08-23T07:50:49.875Z,50.40
2022-08-23T07:56:05.999Z,50.40
2022-08-23T08:01:30.662Z,50.60
2022-08-23T08:06:40.600Z,50.60
2022-08-23T08:11:47.458Z,50.50
2022-08-23T08:16:56.397Z,50.40
2022-08-23T08:22:17.099Z,50.20
2022-08-23T08:27:41.580Z,50.20
2022-08-23T08:32:47.525Z,50.10
2022-08-23T08:37:53.763Z,50.10
2022-08-23T08:43:13.232Z,50.10
2022-08-23T08:48:21.511Z,50.10
2022-08-23T08:53:35.815Z,50.10
2022-08-23T08:58:51.726Z,50.10
2022-08-23T09:03:58.093Z,50.20
2022-08-23T09:09:37.222Z,50.00
2022-08-23T09:14:51.894Z,50.20
2022-08-23T09:20:01.602Z,50.20
2022-08-23T09:25:10.967Z,50.10
2022-08-23T09:30:46.588Z,50.00
2022-08-23T09:36:08.897Z,49.80
2022-08-23T09:41:21.076Z,49.70
2022-08-23T09:46:30.651Z,49.70
2022-08-23T09:51:42.837Z,49.70
2022-08-23T09:56:57.515Z,49.90
2022-08-23T10:02:03.410Z,50.00
2022-08-23T10:07:26.054Z,50.10
2022-08-23T10:12:33.449Z,50.10
2022-08-23T10:17:53.001Z,50.00
2022-08-23T10:23:07.516Z,49.90
2022-08-23T10:28:52.450Z,49.80
2022-08-23T10:34:07.914Z,49.70
2022-08-23T10:39:22.460Z,49.70
2022-08-23T10:44:35.437Z,49.70
2022-08-23T10:49:42.626Z,49.60
2022-08-23T10:55:00.344Z,49.70
2022-08-23T11:00:11.033Z,49.70
2022-08-23T11:05:23.129Z,49.50
2022-08-23T11:10:35.037Z,49.40
2022-08-23T11:15:46.057Z,49.30
2022-08-23T11:21:08.502Z,49.10
2022-08-23T11:27:05.969Z,49.00
2022-08-23T11:32:38.174Z,49.00
2022-08-23T11:38:04.147Z,49.10
2022-08-23T11:43:30.852Z,49.10
2022-08-23T11:48:43.534Z,49.10
2022-08-23T11:54:19.331Z,49.80
2022-08-23T12:00:04.131Z,49.30
2022-08-23T12:05:33.417Z,49.30
2022-08-23T12:11:05.979Z,49.30
2022-08-23T12:16:44.227Z,49.20
2022-08-23T12:21:57.661Z,49.30
2022-08-23T12:27:33.377Z,49.40
2022-08-23T12:32:45.975Z,49.80
2022-08-23T12:37:59.345Z,50.00
2022-08-23T12:43:06.971Z,49.60
2022-08-23T12:48:14.819Z,49.60
2022-08-23T12:53:29.728Z,49.50
2022-08-23T12:58:35.493Z,49.10
2022-08-23T13:03:45.282Z,49.30
2022-08-23T13:08:54.786Z,49.00
2022-08-23T13:13:58.003Z,48.60
2022-08-23T13:19:18.477Z,48.90
2022-08-23T13:24:38.348Z,49.10
2022-08-23T13:29:57.527Z,48.50
2022-08-23T13:35:23.539Z,48.00
2022-08-23T13:40:33.367Z,47.80
2022-08-23T13:45:38.657Z,47.70
2022-08-23T13:50:42.835Z,47.70
2022-08-23T13:55:50.614Z,47.50
2022-08-23T14:00:55.538Z,46.90
2022-08-23T14:05:59.675Z,46.70
2022-08-23T14:11:04.414Z,46.30
2022-08-23T14:21:33.443Z,46.00
2022-08-23T14:26:38.138Z,46.00
2022-08-23T14:31:54.915Z,45.80
2022-08-23T14:42:24.365Z,45.70
2022-08-23T14:47:27.845Z,45.60
2022-08-23T14:52:31.334Z,45.60
2022-08-23T14:57:35.877Z,45.90
2022-08-23T15:02:39.063Z,46.00
2022-08-23T15:07:42.877Z,46.20
2022-08-23T15:13:20.387Z,46.40
2022-08-23T15:18:11.214Z,46.50
2022-08-23T15:23:15.321Z,46.70
2022-08-23T15:28:23.035Z,46.80
2022-08-23T15:33:27.006Z,46.80
2022-08-23T15:38:34.529Z,46.90
2022-08-23T15:43:39.862Z,46.90
2022-08-23T15:48:45.594Z,47.00
2022-08-23T15:53:49.223Z,46.90
2022-08-23T15:58:55.404Z,47.60
2022-08-23T16:04:02.160Z,47.00
2022-08-23T16:09:07.949Z,46.90
2022-08-23T16:14:12.622Z,47.00
2022-08-23T16:19:16.966Z,47.10
2022-08-23T16:24:20.382Z,47.20
2022-08-23T16:29:33.411Z,47.20
2022-08-23T16:34:37.089Z,47.30
2022-08-23T16:39:41.069Z,48.10
2022-08-23T16:44:45.799Z,47.50
2022-08-23T16:49:49.010Z,47.60
2022-08-23T16:54:52.245Z,47.60
2022-08-23T16:59:58.018Z,47.50
2022-08-23T17:05:01.667Z,47.50
2022-08-23T17:10:06.179Z,48.30
2022-08-23T17:15:20.386Z,47.50
2022-08-23T17:20:26.808Z,47.70
2022-08-23T17:25:30.564Z,47.70
2022-08-23T17:30:35.615Z,47.70
2022-08-23T17:35:39.187Z,47.80
2022-08-23T17:40:43.111Z,47.70
2022-08-23T17:45:51.619Z,47.70
2022-08-23T17:50:55.637Z,47.90
2022-08-23T17:55:59.159Z,47.90
2022-08-23T18:01:04.822Z,48.00
2022-08-23T18:06:16.867Z,48.10
2022-08-23T18:11:20.644Z,48.10
2022-08-23T18:16:31.869Z,48.40
2022-08-23T18:21:39.380Z,48.50
2022-08-23T18:27:00.981Z,48.60
2022-08-23T18:32:07.352Z,48.80
2022-08-23T18:37:10.890Z,49.00
2022-08-23T18:42:14.807Z,48.90
2022-08-23T18:47:19.701Z,49.10
2022-08-23T18:52:23.414Z,49.40
2022-08-23T18:57:27.097Z,49.60
2022-08-23T19:02:33.288Z,52.10
2022-08-23T19:07:36.888Z,51.30
2022-08-23T19:12:40.512Z,50.80
2022-08-23T19:17:59.361Z,50.50
2022-08-23T19:23:03.161Z,50.60
2022-08-23T19:28:07.487Z,50.50
2022-08-23T19:33:12.567Z,51.00
2022-08-23T19:38:16.175Z,50.20
2022-08-23T19:43:20.097Z,50.20
2022-08-23T19:48:25.166Z,50.30
2022-08-23T19:53:28.892Z,50.20
2022-08-23T19:58:32.502Z,49.90
2022-08-23T20:03:37.634Z,49.70
2022-08-23T20:08:41.539Z,49.50
2022-08-23T20:13:45.208Z,49.30
2022-08-23T20:18:50.321Z,49.20
2022-08-23T20:24:03.968Z,49.20
2022-08-23T20:29:08.460Z,49.10
2022-08-23T20:34:13.331Z,49.00
2022-08-23T20:39:21.820Z,48.80
2022-08-23T20:44:27.511Z,48.70
2022-08-23T20:49:34.028Z,48.60
2022-08-23T20:54:37.396Z,48.40
2022-08-23T20:59:44.415Z,48.30
2022-08-23T21:04:49.625Z,48.30
2022-08-23T21:09:53.131Z,48.50
2022-08-23T21:14:56.844Z,48.70
2022-08-23T21:20:01.461Z,48.70
2022-08-23T21:25:05.608Z,48.60
2022-08-23T21:30:10.111Z,48.60
2022-08-23T21:35:14.938Z,48.50
2022-08-23T21:40:18.378Z,48.50
2022-08-23T21:45:22.115Z,48.50
2022-08-23T21:50:28.672Z,48.60
2022-08-23T21:55:37.066Z,48.50
2022-08-23T22:00:41.919Z,48.50
2022-08-23T22:05:48.015Z,48.40
2022-08-23T22:10:57.870Z,48.40
2022-08-23T22:16:02.479Z,48.30
2022-08-23T22:21:07.505Z,48.20
2022-08-23T22:26:11.773Z,47.90
2022-08-23T22:31:16.231Z,48.00
2022-08-23T22:36:23.573Z,48.10
2022-08-23T22:41:28.572Z,48.20
2022-08-23T22:46:33.781Z,48.20
2022-08-23T22:51:38.492Z,48.00
2022-08-23T22:56:44.490Z,48.10
2022-08-23T23:01:50.153Z,48.20
2022-08-23T23:06:55.920Z,48.30
2022-08-23T23:11:59.090Z,48.20
2022-08-23T23:17:02.359Z,48.40
2022-08-23T23:22:08.763Z,48.50
2022-08-23T23:27:11.947Z,48.40
2022-08-23T23:32:15.816Z,48.60
2022-08-23T23:37:20.423Z,48.60
2022-08-23T23:42:23.938Z,49.40
2022-08-23T23:47:27.218Z,48.60
2022-08-23T23:52:31.961Z,48.60
2022-08-23T23:57:35.148Z,48.60
